sensor_id;sensor_type;location;lat;lon;timestamp;pressure;altitude;pressure_sealevel;temperature;humidity
15884;BME280;8040;50.254;10.960;2023-02-18T00:00:24;98715.53;;;11.85;81.33
15884;BME280;8040;50.254;10.960;2023-02-18T00:02:49;98711.50;;;11.82;81.50
15884;BME280;8040;50.254;10.960;2023-02-18T00:05:15;98725.09;;;11.82;81.37
15884;BME280;8040;50.254;10.960;2023-02-18T00:07:40;98730.22;;;11.84;81.41
15884;BME280;8040;50.254;10.960;2023-02-18T00:10:10;98725.75;;;11.74;81.53
15884;BME280;8040;50.254;10.960;2023-02-18T00:12:36;98721.81;;;11.67;82.10
15884;BME280;8040;50.254;10.960;2023-02-18T00:15:02;98745.59;;;11.75;81.45
15884;BME280;8040;50.254;10.960;2023-02-18T00:17:28;98733.97;;;11.69;81.53
15884;BME280;8040;50.254;10.960;2023-02-18T00:19:53;98719.78;;;11.54;81.41
15884;BME280;8040;50.254;10.960;2023-02-18T00:22:19;98741.91;;;11.66;81.68
15884;BME280;8040;50.254;10.960;2023-02-18T00:24:44;98745.75;;;11.65;81.52
15884;BME280;8040;50.254;10.960;2023-02-18T00:27:10;98746.84;;;11.64;81.90
15884;BME280;8040;50.254;10.960;2023-02-18T00:29:35;98750.66;;;11.63;81.90
15884;BME280;8040;50.254;10.960;2023-02-18T00:32:00;98743.16;;;11.55;82.57
15884;BME280;8040;50.254;10.960;2023-02-18T00:34:26;98740.50;;;11.50;83.07
15884;BME280;8040;50.254;10.960;2023-02-18T00:36:51;98746.81;;;11.45;83.27
15884;BME280;8040;50.254;10.960;2023-02-18T00:39:16;98749.88;;;11.57;83.04
15884;BME280;8040;50.254;10.960;2023-02-18T00:41:42;98746.13;;;11.58;83.01
15884;BME280;8040;50.254;10.960;2023-02-18T00:44:08;98741.50;;;11.54;82.60
15884;BME280;8040;50.254;10.960;2023-02-18T00:46:34;98761.31;;;11.59;82.58
15884;BME280;8040;50.254;10.960;2023-02-18T00:49:00;98748.13;;;11.48;82.70
15884;BME280;8040;50.254;10.960;2023-02-18T00:51:26;98750.63;;;11.44;83.25
15884;BME280;8040;50.254;10.960;2023-02-18T00:53:52;98752.59;;;11.39;83.24
15884;BME280;8040;50.254;10.960;2023-02-18T00:56:18;98743.34;;;11.40;83.27
15884;BME280;8040;50.254;10.960;2023-02-18T00:58:43;98753.47;;;11.34;83.77
15884;BME280;8040;50.254;10.960;2023-02-18T01:01:09;98754.34;;;11.30;84.11
15884;BME280;8040;50.254;10.960;2023-02-18T01:03:37;98760.09;;;11.28;84.27
15884;BME280;8040;50.254;10.960;2023-02-18T01:06:04;98761.91;;;11.33;84.33
15884;BME280;8040;50.254;10.960;2023-02-18T01:08:30;98772.44;;;11.39;84.49
15884;BME280;8040;50.254;10.960;2023-02-18T01:10:57;98761.63;;;11.34;84.47
15884;BME280;8040;50.254;10.960;2023-02-18T01:13:23;98773.22;;;11.40;84.74
15884;BME280;8040;50.254;10.960;2023-02-18T01:15:48;98766.69;;;11.41;84.58
15884;BME280;8040;50.254;10.960;2023-02-18T01:18:14;98762.97;;;11.37;84.86
15884;BME280;8040;50.254;10.960;2023-02-18T01:20:41;98756.59;;;11.46;84.74
15884;BME280;8040;50.254;10.960;2023-02-18T01:23:07;98762.06;;;11.41;84.41
15884;BME280;8040;50.254;10.960;2023-02-18T01:25:34;98757.91;;;11.49;83.99
15884;BME280;8040;50.254;10.960;2023-02-18T01:27:59;98753.25;;;11.49;83.85
15884;BME280;8040;50.254;10.960;2023-02-18T01:30:28;98741.75;;;11.39;84.04
15884;BME280;8040;50.254;10.960;2023-02-18T01:32:55;98731.69;;;11.39;83.92
15884;BME280;8040;50.254;10.960;2023-02-18T01:35:20;98738.28;;;11.52;83.83
15884;BME280;8040;50.254;10.960;2023-02-18T01:37:46;98751.38;;;11.50;83.82
15884;BME280;8040;50.254;10.960;2023-02-18T01:40:14;98745.06;;;11.54;83.51
15884;BME280;8040;50.254;10.960;2023-02-18T01:42:40;98755.06;;;11.59;83.50
15884;BME280;8040;50.254;10.960;2023-02-18T01:48:22;98751.09;;;11.70;82.64
15884;BME280;8040;50.254;10.960;2023-02-18T01:50:53;98734.41;;;11.58;82.53
15884;BME280;8040;50.254;10.960;2023-02-18T01:53:34;98722.47;;;11.59;82.45
15884;BME280;8040;50.254;10.960;2023-02-18T01:56:04;98721.00;;;11.66;82.32
15884;BME280;8040;50.254;10.960;2023-02-18T01:58:31;98730.31;;;11.60;82.08
15884;BME280;8040;50.254;10.960;2023-02-18T02:00:57;98723.44;;;11.68;81.88
15884;BME280;8040;50.254;10.960;2023-02-18T02:03:22;98719.59;;;11.69;81.65
15884;BME280;8040;50.254;10.960;2023-02-18T02:05:48;98723.72;;;11.66;81.33
15884;BME280;8040;50.254;10.960;2023-02-18T02:08:13;98733.41;;;11.72;81.57
15884;BME280;8040;50.254;10.960;2023-02-18T02:11:01;98730.75;;;11.67;81.79
15884;BME280;8040;50.254;10.960;2023-02-18T02:16:25;98715.91;;;11.78;81.35
15884;BME280;8040;50.254;10.960;2023-02-18T02:19:28;98725.31;;;11.86;81.31
15884;BME280;8040;50.254;10.960;2023-02-18T02:25:02;98717.09;;;11.72;80.91
15884;BME280;8040;50.254;10.960;2023-02-18T02:30:39;98719.00;;;11.72;81.10
15884;BME280;8040;50.254;10.960;2023-02-18T02:36:14;98712.38;;;11.78;81.19
15884;BME280;8040;50.254;10.960;2023-02-18T02:38:54;98710.84;;;11.72;81.13
15884;BME280;8040;50.254;10.960;2023-02-18T02:44:10;98706.78;;;11.88;81.12
15884;BME280;8040;50.254;10.960;2023-02-18T02:46:42;98716.22;;;11.77;81.11
15884;BME280;8040;50.254;10.960;2023-02-18T02:49:31;98727.81;;;11.82;81.37
15884;BME280;8040;50.254;10.960;2023-02-18T02:52:11;98720.53;;;11.78;81.36
15884;BME280;8040;50.254;10.960;2023-02-18T02:54:38;98713.41;;;11.82;80.99
15884;BME280;8040;50.254;10.960;2023-02-18T02:59:43;98713.41;;;11.82;80.90
15884;BME280;8040;50.254;10.960;2023-02-18T03:02:34;98726.31;;;11.90;80.78
15884;BME280;8040;50.254;10.960;2023-02-18T03:05:36;98726.25;;;11.95;80.75
15884;BME280;8040;50.254;10.960;2023-02-18T03:10:51;98724.34;;;11.95;80.17
15884;BME280;8040;50.254;10.960;2023-02-18T03:16:27;98718.50;;;11.88;80.06
15884;BME280;8040;50.254;10.960;2023-02-18T03:21:54;98709.81;;;11.86;79.96
15884;BME280;8040;50.254;10.960;2023-02-18T03:24:38;98711.34;;;11.92;79.93
15884;BME280;8040;50.254;10.960;2023-02-18T03:27:11;98707.63;;;11.88;79.77
15884;BME280;8040;50.254;10.960;2023-02-18T03:29:39;98710.09;;;11.85;79.55
15884;BME280;8040;50.254;10.960;2023-02-18T03:32:07;98702.75;;;11.85;79.67
15884;BME280;8040;50.254;10.960;2023-02-18T03:34:39;98716.56;;;11.89;79.67
15884;BME280;8040;50.254;10.960;2023-02-18T03:37:06;98702.69;;;11.90;79.38
15884;BME280;8040;50.254;10.960;2023-02-18T03:39:36;98699.47;;;11.88;79.13
15884;BME280;8040;50.254;10.960;2023-02-18T03:42:04;98702.28;;;11.97;79.11
15884;BME280;8040;50.254;10.960;2023-02-18T03:44:30;98692.91;;;11.89;79.39
15884;BME280;8040;50.254;10.960;2023-02-18T03:46:56;98706.44;;;11.94;79.10
15884;BME280;8040;50.254;10.960;2023-02-18T03:49:21;98704.50;;;11.95;79.07
15884;BME280;8040;50.254;10.960;2023-02-18T03:51:47;98711.53;;;11.96;79.15
15884;BME280;8040;50.254;10.960;2023-02-18T03:54:13;98718.00;;;12.00;78.59
15884;BME280;8040;50.254;10.960;2023-02-18T03:56:39;98720.44;;;12.01;78.67
15884;BME280;8040;50.254;10.960;2023-02-18T03:59:06;98711.53;;;11.96;78.49
15884;BME280;8040;50.254;10.960;2023-02-18T04:01:31;98720.81;;;11.95;78.81
15884;BME280;8040;50.254;10.960;2023-02-18T04:03:57;98732.19;;;11.97;79.07
15884;BME280;8040;50.254;10.960;2023-02-18T04:06:22;98733.50;;;11.99;79.10
15884;BME280;8040;50.254;10.960;2023-02-18T04:08:48;98716.41;;;11.99;79.14
15884;BME280;8040;50.254;10.960;2023-02-18T04:11:14;98716.19;;;11.95;79.25
15884;BME280;8040;50.254;10.960;2023-02-18T04:13:40;98719.63;;;12.01;79.28
15884;BME280;8040;50.254;10.960;2023-02-18T04:16:06;98714.19;;;12.01;79.01
15884;BME280;8040;50.254;10.960;2023-02-18T04:18:31;98711.63;;;11.91;79.11
15884;BME280;8040;50.254;10.960;2023-02-18T04:20:57;98724.84;;;11.97;79.17
15884;BME280;8040;50.254;10.960;2023-02-18T04:23:22;98733.28;;;11.96;79.21
15884;BME280;8040;50.254;10.960;2023-02-18T04:25:48;98736.34;;;11.94;79.63
15884;BME280;8040;50.254;10.960;2023-02-18T04:28:14;98737.50;;;11.88;80.14
15884;BME280;8040;50.254;10.960;2023-02-18T04:30:41;98728.03;;;11.86;80.21
15884;BME280;8040;50.254;10.960;2023-02-18T04:33:07;98727.00;;;11.82;80.41
15884;BME280;8040;50.254;10.960;2023-02-18T04:35:32;98723.19;;;11.83;80.61
15884;BME280;8040;50.254;10.960;2023-02-18T04:37:58;98716.56;;;11.89;80.24
15884;BME280;8040;50.254;10.960;2023-02-18T04:40:23;98714.25;;;11.96;80.16
15884;BME280;8040;50.254;10.960;2023-02-18T04:42:50;98711.13;;;11.89;80.15
15884;BME280;8040;50.254;10.960;2023-02-18T04:45:16;98718.38;;;11.93;80.37
15884;BME280;8040;50.254;10.960;2023-02-18T04:47:41;98721.03;;;11.98;80.34
15884;BME280;8040;50.254;10.960;2023-02-18T04:50:07;98715.88;;;11.97;80.23
15884;BME280;8040;50.254;10.960;2023-02-18T04:52:33;98713.97;;;11.97;80.52
15884;BME280;8040;50.254;10.960;2023-02-18T04:54:58;98711.88;;;11.94;80.29
15884;BME280;8040;50.254;10.960;2023-02-18T04:57:23;98706.63;;;11.98;80.09
15884;BME280;8040;50.254;10.960;2023-02-18T04:59:49;98700.84;;;11.86;80.25
15884;BME280;8040;50.254;10.960;2023-02-18T05:02:14;98688.94;;;11.82;80.23
15884;BME280;8040;50.254;10.960;2023-02-18T05:04:39;98705.91;;;11.92;80.31
15884;BME280;8040;50.254;10.960;2023-02-18T05:07:05;98694.44;;;11.95;80.31
15884;BME280;8040;50.254;10.960;2023-02-18T05:09:30;98709.84;;;12.00;80.18
15884;BME280;8040;50.254;10.960;2023-02-18T05:11:55;98702.28;;;11.97;80.06
15884;BME280;8040;50.254;10.960;2023-02-18T05:14:21;98709.56;;;12.01;80.01
15884;BME280;8040;50.254;10.960;2023-02-18T05:16:46;98703.31;;;12.01;80.52
15884;BME280;8040;50.254;10.960;2023-02-18T05:19:13;98694.66;;;11.99;80.59
15884;BME280;8040;50.254;10.960;2023-02-18T05:21:39;98698.47;;;11.98;80.72
15884;BME280;8040;50.254;10.960;2023-02-18T05:24:05;98676.88;;;11.88;80.82
15884;BME280;8040;50.254;10.960;2023-02-18T05:26:30;98672.56;;;11.87;81.10
15884;BME280;8040;50.254;10.960;2023-02-18T05:28:56;98674.19;;;11.88;81.27
15884;BME280;8040;50.254;10.960;2023-02-18T05:31:21;98652.78;;;11.81;81.02
15884;BME280;8040;50.254;10.960;2023-02-18T05:33:47;98661.41;;;11.88;81.29
15884;BME280;8040;50.254;10.960;2023-02-18T05:36:12;98666.44;;;11.95;81.16
15884;BME280;8040;50.254;10.960;2023-02-18T05:38:38;98650.22;;;11.90;81.21
15884;BME280;8040;50.254;10.960;2023-02-18T05:41:03;98664.31;;;11.92;81.22
15884;BME280;8040;50.254;10.960;2023-02-18T05:43:28;98659.38;;;11.94;81.38
15884;BME280;8040;50.254;10.960;2023-02-18T05:45:54;98643.25;;;11.84;81.13
15884;BME280;8040;50.254;10.960;2023-02-18T05:48:19;98650.75;;;11.92;80.80
15884;BME280;8040;50.254;10.960;2023-02-18T05:50:45;98654.66;;;11.99;80.54
15884;BME280;8040;50.254;10.960;2023-02-18T05:53:10;98660.72;;;11.96;80.47
15884;BME280;8040;50.254;10.960;2023-02-18T05:55:35;98658.19;;;12.00;79.86
15884;BME280;8040;50.254;10.960;2023-02-18T05:58:04;98646.28;;;11.96;79.93
15884;BME280;8040;50.254;10.960;2023-02-18T06:00:30;98641.88;;;12.00;79.72
15884;BME280;8040;50.254;10.960;2023-02-18T06:02:56;98646.63;;;11.94;79.74
15884;BME280;8040;50.254;10.960;2023-02-18T06:05:22;98649.00;;;11.96;79.41
15884;BME280;8040;50.254;10.960;2023-02-18T06:07:48;98646.38;;;11.91;79.71
15884;BME280;8040;50.254;10.960;2023-02-18T06:10:13;98650.22;;;11.90;79.73
15884;BME280;8040;50.254;10.960;2023-02-18T06:12:38;98641.47;;;11.93;79.62
15884;BME280;8040;50.254;10.960;2023-02-18T06:15:04;98641.47;;;11.93;79.52
15884;BME280;8040;50.254;10.960;2023-02-18T06:17:30;98635.84;;;12.03;79.59
15884;BME280;8040;50.254;10.960;2023-02-18T06:19:55;98626.81;;;12.07;79.06
15884;BME280;8040;50.254;10.960;2023-02-18T06:22:21;98635.75;;;12.08;78.91
15884;BME280;8040;50.254;10.960;2023-02-18T06:24:46;98626.88;;;12.02;78.72
15884;BME280;8040;50.254;10.960;2023-02-18T06:27:12;98623.34;;;12.02;78.71
15884;BME280;8040;50.254;10.960;2023-02-18T06:29:37;98628.78;;;12.02;78.53
15884;BME280;8040;50.254;10.960;2023-02-18T06:32:05;98616.91;;;11.98;78.31
15884;BME280;8040;50.254;10.960;2023-02-18T06:34:30;98625.78;;;12.03;78.14
15884;BME280;8040;50.254;10.960;2023-02-18T06:36:55;98625.56;;;12.00;78.01
15884;BME280;8040;50.254;10.960;2023-02-18T06:39:21;98617.91;;;12.02;77.84
15884;BME280;8040;50.254;10.960;2023-02-18T06:41:46;98621.94;;;12.04;77.57
15884;BME280;8040;50.254;10.960;2023-02-18T06:44:12;98615.59;;;12.09;77.36
15884;BME280;8040;50.254;10.960;2023-02-18T06:46:39;98622.88;;;12.13;77.38
15884;BME280;8040;50.254;10.960;2023-02-18T06:49:04;98627.59;;;12.08;77.49
15884;BME280;8040;50.254;10.960;2023-02-18T06:51:30;98620.16;;;12.13;77.43
15884;BME280;8040;50.254;10.960;2023-02-18T06:53:55;98627.13;;;12.19;77.58
15884;BME280;8040;50.254;10.960;2023-02-18T06:56:20;98600.59;;;12.11;77.55
15884;BME280;8040;50.254;10.960;2023-02-18T06:58:46;98610.16;;;12.09;77.69
15884;BME280;8040;50.254;10.960;2023-02-18T07:01:11;98603.72;;;12.18;77.59
15884;BME280;8040;50.254;10.960;2023-02-18T07:03:36;98599.00;;;12.10;77.96
15884;BME280;8040;50.254;10.960;2023-02-18T07:06:02;98601.63;;;12.15;77.95
15884;BME280;8040;50.254;10.960;2023-02-18T07:08:27;98598.22;;;12.10;77.74
15884;BME280;8040;50.254;10.960;2023-02-18T07:10:55;98591.25;;;12.04;77.94
15884;BME280;8040;50.254;10.960;2023-02-18T07:13:20;98598.50;;;12.08;78.29
15884;BME280;8040;50.254;10.960;2023-02-18T07:15:45;98591.38;;;12.12;78.50
15884;BME280;8040;50.254;10.960;2023-02-18T07:18:11;98573.22;;;12.08;78.29
15884;BME280;8040;50.254;10.960;2023-02-18T07:20:36;98591.03;;;12.14;78.44
15884;BME280;8040;50.254;10.960;2023-02-18T07:23:01;98591.56;;;12.16;78.46
15884;BME280;8040;50.254;10.960;2023-02-18T07:25:27;98581.19;;;12.18;78.35
15884;BME280;8040;50.254;10.960;2023-02-18T07:27:52;98570.59;;;12.16;78.54
15884;BME280;8040;50.254;10.960;2023-02-18T07:30:18;98562.03;;;12.09;79.20
15884;BME280;8040;50.254;10.960;2023-02-18T07:32:44;98573.41;;;12.11;79.47
15884;BME280;8040;50.254;10.960;2023-02-18T07:35:12;98568.19;;;12.15;79.71
15884;BME280;8040;50.254;10.960;2023-02-18T07:37:38;98556.09;;;12.07;80.21
15884;BME280;8040;50.254;10.960;2023-02-18T07:40:04;98556.50;;;12.14;80.29
15884;BME280;8040;50.254;10.960;2023-02-18T07:42:30;98547.63;;;12.09;80.67
15884;BME280;8040;50.254;10.960;2023-02-18T07:44:55;98559.63;;;12.21;80.95
15884;BME280;8040;50.254;10.960;2023-02-18T07:47:21;98558.63;;;12.31;80.87
15884;BME280;8040;50.254;10.960;2023-02-18T07:49:47;98560.13;;;12.23;81.42
15884;BME280;8040;50.254;10.960;2023-02-18T07:52:15;98549.56;;;12.22;81.55
15884;BME280;8040;50.254;10.960;2023-02-18T07:54:41;98551.78;;;12.33;81.60
15884;BME280;8040;50.254;10.960;2023-02-18T07:57:06;98552.69;;;12.29;81.78
15884;BME280;8040;50.254;10.960;2023-02-18T07:59:32;98552.47;;;12.39;82.09
15884;BME280;8040;50.254;10.960;2023-02-18T08:01:57;98556.53;;;12.28;82.43
15884;BME280;8040;50.254;10.960;2023-02-18T08:04:22;98548.03;;;12.29;83.21
15884;BME280;8040;50.254;10.960;2023-02-18T08:06:48;98555.91;;;12.31;83.67
15884;BME280;8040;50.254;10.960;2023-02-18T08:09:14;98553.38;;;12.34;83.75
15884;BME280;8040;50.254;10.960;2023-02-18T08:11:40;98534.75;;;12.28;83.94
15884;BME280;8040;50.254;10.960;2023-02-18T08:14:06;98547.53;;;12.41;83.44
15884;BME280;8040;50.254;10.960;2023-02-18T08:16:32;98533.22;;;12.49;81.72
15884;BME280;8040;50.254;10.960;2023-02-18T08:18:59;98538.16;;;12.47;80.13
15884;BME280;8040;50.254;10.960;2023-02-18T08:21:25;98544.38;;;12.61;78.64
15884;BME280;8040;50.254;10.960;2023-02-18T08:23:51;98524.66;;;12.55;77.89
15884;BME280;8040;50.254;10.960;2023-02-18T08:26:17;98533.88;;;12.68;77.47
15884;BME280;8040;50.254;10.960;2023-02-18T08:28:44;98528.53;;;12.63;77.30
15884;BME280;8040;50.254;10.960;2023-02-18T08:31:25;98538.53;;;12.67;77.34
15884;BME280;8040;50.254;10.960;2023-02-18T08:33:52;98539.31;;;12.68;77.10
15884;BME280;8040;50.254;10.960;2023-02-18T08:36:18;98543.47;;;12.65;77.06
15884;BME280;8040;50.254;10.960;2023-02-18T08:38:44;98536.50;;;12.73;76.73
15884;BME280;8040;50.254;10.960;2023-02-18T08:41:10;98551.44;;;12.62;76.68
15884;BME280;8040;50.254;10.960;2023-02-18T08:43:36;98532.88;;;12.64;75.96
15884;BME280;8040;50.254;10.960;2023-02-18T08:46:02;98537.34;;;12.60;75.21
15884;BME280;8040;50.254;10.960;2023-02-18T08:48:28;98514.84;;;12.54;74.96
15884;BME280;8040;50.254;10.960;2023-02-18T08:50:53;98531.63;;;12.48;74.85
15884;BME280;8040;50.254;10.960;2023-02-18T08:53:19;98513.34;;;12.48;74.67
15884;BME280;8040;50.254;10.960;2023-02-18T08:55:45;98523.84;;;12.55;74.20
15884;BME280;8040;50.254;10.960;2023-02-18T08:58:11;98534.31;;;12.61;73.89
15884;BME280;8040;50.254;10.960;2023-02-18T09:00:37;98539.25;;;12.59;73.16
15884;BME280;8040;50.254;10.960;2023-02-18T09:03:03;98531.00;;;12.51;72.61
15884;BME280;8040;50.254;10.960;2023-02-18T09:05:29;98523.81;;;12.68;72.13
15884;BME280;8040;50.254;10.960;2023-02-18T09:07:54;98513.72;;;12.69;71.85
15884;BME280;8040;50.254;10.960;2023-02-18T09:10:20;98518.25;;;12.73;71.55
15884;BME280;8040;50.254;10.960;2023-02-18T09:12:45;98533.47;;;12.74;71.10
15884;BME280;8040;50.254;10.960;2023-02-18T09:15:11;98525.31;;;12.74;70.76
15884;BME280;8040;50.254;10.960;2023-02-18T09:17:36;98520.06;;;12.78;70.46
15884;BME280;8040;50.254;10.960;2023-02-18T09:20:02;98525.97;;;12.93;70.30
15884;BME280;8040;50.254;10.960;2023-02-18T09:22:28;98526.06;;;13.02;69.34
15884;BME280;8040;50.254;10.960;2023-02-18T09:24:53;98531.31;;;13.20;68.84
15884;BME280;8040;50.254;10.960;2023-02-18T09:27:21;98529.22;;;13.17;67.52
15884;BME280;8040;50.254;10.960;2023-02-18T09:29:46;98521.25;;;13.21;66.84
15884;BME280;8040;50.254;10.960;2023-02-18T09:32:12;98533.94;;;13.25;65.65
15884;BME280;8040;50.254;10.960;2023-02-18T09:34:38;98523.84;;;13.26;65.91
15884;BME280;8040;50.254;10.960;2023-02-18T09:37:03;98520.25;;;13.39;65.57
15884;BME280;8040;50.254;10.960;2023-02-18T09:39:29;98527.06;;;13.50;65.12
15884;BME280;8040;50.254;10.960;2023-02-18T09:42:06;98509.03;;;13.40;64.18
15884;BME280;8040;50.254;10.960;2023-02-18T09:44:53;98522.94;;;13.61;64.13
15884;BME280;8040;50.254;10.960;2023-02-18T09:47:34;98523.56;;;13.58;62.53
15884;BME280;8040;50.254;10.960;2023-02-18T09:50:05;98504.53;;;13.66;61.79
15884;BME280;8040;50.254;10.960;2023-02-18T09:52:34;98498.75;;;13.59;61.05
15884;BME280;8040;50.254;10.960;2023-02-18T09:55:27;98507.41;;;13.61;60.47
15884;BME280;8040;50.254;10.960;2023-02-18T09:57:56;98511.38;;;13.55;60.89
15884;BME280;8040;50.254;10.960;2023-02-18T10:00:41;98502.59;;;13.67;60.35
15884;BME280;8040;50.254;10.960;2023-02-18T10:03:25;98500.81;;;13.62;59.96
15884;BME280;8040;50.254;10.960;2023-02-18T10:06:10;98501.13;;;13.61;59.59
15884;BME280;8040;50.254;10.960;2023-02-18T10:08:48;98514.94;;;13.64;59.19
15884;BME280;8040;50.254;10.960;2023-02-18T10:13:46;98506.50;;;13.44;58.91
15884;BME280;8040;50.254;10.960;2023-02-18T10:16:17;98500.22;;;13.43;59.15
15884;BME280;8040;50.254;10.960;2023-02-18T10:18:48;98506.31;;;13.40;58.76
15884;BME280;8040;50.254;10.960;2023-02-18T10:21:18;98500.53;;;13.42;58.24
15884;BME280;8040;50.254;10.960;2023-02-18T10:26:30;98512.78;;;13.53;58.63
15884;BME280;8040;50.254;10.960;2023-02-18T10:28:58;98510.56;;;13.55;58.27
15884;BME280;8040;50.254;10.960;2023-02-18T10:31:33;98495.59;;;13.44;57.87
15884;BME280;8040;50.254;10.960;2023-02-18T10:36:45;98485.06;;;13.51;57.90
15884;BME280;8040;50.254;10.960;2023-02-18T10:39:33;98495.44;;;13.49;57.83
15884;BME280;8040;50.254;10.960;2023-02-18T10:42:19;98478.56;;;13.38;57.36
15884;BME280;8040;50.254;10.960;2023-02-18T10:50:04;98486.13;;;13.41;57.88
15884;BME280;8040;50.254;10.960;2023-02-18T10:52:37;98479.50;;;13.34;57.07
15884;BME280;8040;50.254;10.960;2023-02-18T10:55:13;98486.81;;;13.25;56.91
15884;BME280;8040;50.254;10.960;2023-02-18T10:57:48;98481.34;;;13.25;56.73
15884;BME280;8040;50.254;10.960;2023-02-18T11:02:40;98466.50;;;13.31;57.03
15884;BME280;8040;50.254;10.960;2023-02-18T11:05:26;98477.84;;;13.55;56.65
15884;BME280;8040;50.254;10.960;2023-02-18T11:07:57;98464.13;;;13.68;55.75
15884;BME280;8040;50.254;10.960;2023-02-18T11:10:25;98468.63;;;13.73;56.08
15884;BME280;8040;50.254;10.960;2023-02-18T11:13:01;98451.53;;;13.81;55.93
15884;BME280;8040;50.254;10.960;2023-02-18T11:15:28;98459.25;;;13.87;54.73
15884;BME280;8040;50.254;10.960;2023-02-18T11:17:57;98460.41;;;13.95;53.91
15884;BME280;8040;50.254;10.960;2023-02-18T11:20:36;98452.69;;;13.97;54.39
15884;BME280;8040;50.254;10.960;2023-02-18T11:25:35;98465.09;;;14.11;53.67
15884;BME280;8040;50.254;10.960;2023-02-18T11:28:03;98448.53;;;13.99;52.52
15884;BME280;8040;50.254;10.960;2023-02-18T11:30:36;98453.22;;;14.07;52.70
15884;BME280;8040;50.254;10.960;2023-02-18T11:33:07;98440.81;;;13.93;51.47
15884;BME280;8040;50.254;10.960;2023-02-18T11:35:34;98447.25;;;13.97;52.38
15884;BME280;8040;50.254;10.960;2023-02-18T11:38:03;98426.69;;;13.91;52.31
15884;BME280;8040;50.254;10.960;2023-02-18T11:40:39;98437.19;;;14.14;52.25
15884;BME280;8040;50.254;10.960;2023-02-18T11:43:15;98431.69;;;13.97;51.04
15884;BME280;8040;50.254;10.960;2023-02-18T11:45:45;98427.34;;;13.96;52.21
15884;BME280;8040;50.254;10.960;2023-02-18T11:48:22;98434.44;;;14.06;51.83
15884;BME280;8040;50.254;10.960;2023-02-18T11:50:52;98432.53;;;14.15;51.50
15884;BME280;8040;50.254;10.960;2023-02-18T11:53:31;98428.66;;;14.16;51.72
15884;BME280;8040;50.254;10.960;2023-02-18T11:56:06;98410.53;;;14.11;51.01
15884;BME280;8040;50.254;10.960;2023-02-18T11:58:43;98410.69;;;14.15;52.10
15884;BME280;8040;50.254;10.960;2023-02-18T12:01:50;98412.81;;;14.18;52.09
15884;BME280;8040;50.254;10.960;2023-02-18T12:04:19;98400.75;;;14.10;51.40
15884;BME280;8040;50.254;10.960;2023-02-18T12:07:00;98404.75;;;14.04;51.60
15884;BME280;8040;50.254;10.960;2023-02-18T12:10:02;98399.41;;;13.91;50.95
15884;BME280;8040;50.254;10.960;2023-02-18T12:12:37;98393.16;;;13.82;51.21
15884;BME280;8040;50.254;10.960;2023-02-18T12:15:08;98388.13;;;13.67;51.27
15884;BME280;8040;50.254;10.960;2023-02-18T12:23:03;98411.09;;;13.83;50.92
15884;BME280;8040;50.254;10.960;2023-02-18T12:25:41;98413.03;;;13.82;50.75
15884;BME280;8040;50.254;10.960;2023-02-18T12:28:16;98386.84;;;13.73;51.38
15884;BME280;8040;50.254;10.960;2023-02-18T12:36:36;98398.59;;;13.82;51.58
15884;BME280;8040;50.254;10.960;2023-02-18T12:41:59;98400.47;;;13.73;50.98
15884;BME280;8040;50.254;10.960;2023-02-18T12:44:33;98382.38;;;13.77;51.43
15884;BME280;8040;50.254;10.960;2023-02-18T12:52:41;98392.91;;;13.61;50.42
15884;BME280;8040;50.254;10.960;2023-02-18T12:57:59;98403.81;;;13.61;51.10
15884;BME280;8040;50.254;10.960;2023-02-18T13:03:59;98399.16;;;13.53;50.93
15884;BME280;8040;50.254;10.960;2023-02-18T13:09:24;98386.22;;;13.28;51.68
15884;BME280;8040;50.254;10.960;2023-02-18T13:14:59;98388.78;;;13.33;52.49
15884;BME280;8040;50.254;10.960;2023-02-18T13:17:29;98401.38;;;13.21;52.08
15884;BME280;8040;50.254;10.960;2023-02-18T13:19:59;98417.38;;;13.14;53.02
15884;BME280;8040;50.254;10.960;2023-02-18T13:22:29;98430.63;;;13.07;54.29
15884;BME280;8040;50.254;10.960;2023-02-18T13:24:56;98414.25;;;12.85;54.07
15884;BME280;8040;50.254;10.960;2023-02-18T13:27:40;98421.75;;;12.79;55.33
15884;BME280;8040;50.254;10.960;2023-02-18T13:32:50;98427.94;;;12.93;55.16
15884;BME280;8040;50.254;10.960;2023-02-18T13:35:26;98408.19;;;12.88;54.55
15884;BME280;8040;50.254;10.960;2023-02-18T13:40:47;98419.06;;;12.88;55.52
15884;BME280;8040;50.254;10.960;2023-02-18T13:46:02;98395.88;;;12.90;55.47
15884;BME280;8040;50.254;10.960;2023-02-18T13:48:29;98405.34;;;12.93;55.51
15884;BME280;8040;50.254;10.960;2023-02-18T13:51:01;98391.38;;;12.86;55.18
15884;BME280;8040;50.254;10.960;2023-02-18T13:53:30;98388.28;;;12.79;55.78
15884;BME280;8040;50.254;10.960;2023-02-18T13:56:06;98371.13;;;12.78;56.06
15884;BME280;8040;50.254;10.960;2023-02-18T13:58:41;98387.41;;;12.92;55.79
15884;BME280;8040;50.254;10.960;2023-02-18T14:01:12;98409.28;;;13.00;55.69
15884;BME280;8040;50.254;10.960;2023-02-18T14:06:16;98398.63;;;13.12;55.24
15884;BME280;8040;50.254;10.960;2023-02-18T14:08:42;98392.50;;;13.07;55.56
15884;BME280;8040;50.254;10.960;2023-02-18T14:13:41;98376.41;;;12.97;55.82
15884;BME280;8040;50.254;10.960;2023-02-18T14:16:09;98388.91;;;12.98;56.12
15884;BME280;8040;50.254;10.960;2023-02-18T14:21:18;98386.91;;;13.12;56.38
15884;BME280;8040;50.254;10.960;2023-02-18T14:26:21;98403.13;;;13.17;56.21
15884;BME280;8040;50.254;10.960;2023-02-18T14:31:33;98407.41;;;13.09;56.43
15884;BME280;8040;50.254;10.960;2023-02-18T14:36:45;98405.25;;;12.98;56.33
15884;BME280;8040;50.254;10.960;2023-02-18T14:42:37;98400.41;;;12.95;56.80
15884;BME280;8040;50.254;10.960;2023-02-18T14:45:18;98411.81;;;12.97;56.79
15884;BME280;8040;50.254;10.960;2023-02-18T14:50:42;98398.28;;;12.92;57.11
15884;BME280;8040;50.254;10.960;2023-02-18T14:53:17;98395.69;;;12.87;57.33
15884;BME280;8040;50.254;10.960;2023-02-18T14:55:46;98402.03;;;12.96;57.63
15884;BME280;8040;50.254;10.960;2023-02-18T14:58:27;98406.38;;;12.97;57.37